ウルムチ の空港の天気 - METARとTAF

ウルムチ地窩堡国際空港 ( ZWWW / URC ) - 中国 新疆ウイグル自治区ウルムチ市
飛行場実況気象(Metar)
観測時間12/10 13:00 CST (12/10 05:00 UTC)
風向・風速北北西 2m/s
視程4000m
天気現象もや
なし
気温-16℃
湿度71%
気圧1034hPa
METARZWWW 100500Z 33002MPS 310V010 4000 BR NSC M16/M20 Q1034 NOSIG
過去の天気等 Google飛行場航空写真 Wunderground天気予報

過去48時間のMETAR

飛行場予報(TAF)
発表時間: 12/10 05:21 CST (12/09 21:21 UTC)
予報対象時間: 10日8時 CST ~ 11日8時 CST
風向・風速南 2m/s
視程2000m
天気現象もや
なし
10日9時 CST ~ 10日10時 CST に徐々に
風向・風速北 2m/s
視程1400m
天気現象もや
10日14時 CST ~ 10日15時 CST に徐々に
視程2000m
天気現象
10日21時 CST ~ 10日22時 CST に徐々に
風向・風速南 2m/s
TAF ZWWW 092121Z 1000/1024 18002MPS 2000 BR NSC TXM14/09Z TNM21/23Z
BECMG 1001/1002 36002MPS 1400 BR
BECMG 1006/1007 2000 FU
BECMG 1013/1014 18002MPS